Time;durP1;ratioP1;P1;durP2;ratioP2;P2;SDS_P1;SDS_P2;PMS_P1;PMS_P2;Temp;Humidity;BMP_temperature;BMP_pressure;BME280_temperature;BME280_humidity;BME280_pressure;Samples;Min_cycle;Max_cycle;Signal;HPM_P1;HPM_P2
2023/12/01 00:00:30;;;;;;;;;;;11.60;42.40;;;11.67;45.60;99458.44;5058507;28;19925;-36
2023/12/01 00:02:59;;;;;;;;;;;11.60;42.40;;;11.72;45.58;99471.47;5054822;28;19975;-37
2023/12/01 00:05:27;;;;;;;;;;;11.60;42.50;;;11.70;45.78;99472.91;5054152;28;19970;-36
2023/12/01 00:07:55;;;;;;;;;;;11.60;42.50;;;11.73;45.24;99480.78;5053664;28;19925;-36
2023/12/01 00:10:23;;;;;;;;;;;11.60;42.50;;;11.71;45.67;99479.72;5053303;28;19925;-37
2023/12/01 00:12:51;;;;;;;;;;;11.60;42.50;;;11.72;45.83;99481.50;5053247;28;20608;-37
2023/12/01 00:15:19;;;;;;;;;;;11.50;42.40;;;11.72;45.21;99491.53;5053476;28;19935;-37
2023/12/01 00:17:47;;;;;;;;;;;11.50;42.50;;;11.71;45.68;99494.78;5052719;28;19925;-37
2023/12/01 00:20:16;;;;;;;;;;;11.50;42.50;;;11.70;45.43;99492.97;5052915;28;19933;-37
2023/12/01 00:22:44;;;;;;;;;;;11.50;42.50;;;11.68;45.63;99480.28;5052673;28;19925;-36
2023/12/01 00:25:12;;;;;;;;;;;11.50;42.50;;;11.69;45.62;99486.22;5052901;28;19924;-36
2023/12/01 00:27:40;;;;;;;;;;;11.50;42.50;;;11.69;45.67;99486.22;5052543;28;19935;-36
2023/12/01 00:30:08;;;;;;;;;;;11.50;42.50;;;11.69;45.38;99486.22;5052883;28;19925;-36
2023/12/01 00:32:36;;;;;;;;;;;11.50;42.50;;;11.69;45.08;99486.22;5052585;28;19979;-37
2023/12/01 00:35:05;;;;;;;;;;;11.50;42.40;;;11.72;45.56;99476.47;5045026;28;19925;-37
2023/12/01 00:37:34;;;;;;;;;;;11.60;42.60;;;11.73;45.36;99477.38;5052560;28;19925;-36
2023/12/01 00:40:02;;;;;;;;;;;11.50;42.50;;;11.74;45.93;99482.59;5052407;28;20282;-35
2023/12/01 00:42:30;;;;;;;;;;;11.60;42.50;;;11.74;45.02;99485.13;5052384;28;19935;-36
2023/12/01 00:44:58;;;;;;;;;;;11.60;42.40;;;11.77;45.47;99489.53;5051949;28;20431;-37
2023/12/01 00:47:26;;;;;;;;;;;11.60;42.40;;;11.80;45.93;99489.88;5051909;28;19925;-36
2023/12/01 00:49:54;;;;;;;;;;;11.60;42.30;;;11.81;45.54;99495.06;5052249;28;19947;-36
2023/12/01 00:52:22;;;;;;;;;;;11.60;42.30;;;11.83;45.53;99491.09;5054550;28;20332;-35
2023/12/01 00:54:51;;;;;;;;;;;11.60;42.30;;;11.82;45.37;99494.34;5052736;28;19979;-36
2023/12/01 00:57:19;;;;;;;;;;;11.70;42.30;;;11.85;45.59;99494.66;5052026;28;19931;-37
2023/12/01 00:59:47;;;;;;;;;;;11.70;42.30;;;11.83;45.72;99491.09;5051816;28;19933;-36
2023/12/01 01:02:15;;;;;;;;;;;11.70;42.30;;;11.84;45.01;99504.53;5052569;28;19925;-37
2023/12/01 01:04:43;;;;;;;;;;;11.70;42.20;;;11.87;45.72;99513.28;5052725;28;20030;-36
2023/12/01 01:07:12;;;;;;;;;;;11.70;42.20;;;11.90;45.10;99513.59;5052445;28;19992;-36
2023/12/01 01:09:40;;;;;;;;;;;11.70;42.20;;;11.89;45.36;99521.84;5056433;28;19968;-33
2023/12/01 01:12:09;;;;;;;;;;;11.70;42.20;;;11.90;45.58;99518.63;5051972;28;19978;-37
2023/12/01 01:14:37;;;;;;;;;;;11.70;42.10;;;11.89;45.37;99519.34;5051805;28;20375;-37
2023/12/01 01:17:05;;;;;;;;;;;11.70;42.10;;;11.89;44.95;99524.38;5052243;28;19925;-36
2023/12/01 01:19:33;;;;;;;;;;;11.70;42.10;;;11.89;45.77;99526.88;5052059;28;19932;-36
2023/12/01 01:22:00;;;;;;;;;;;11.70;42.20;;;11.91;45.75;99524.53;5052009;28;19955;-36
2023/12/01 01:24:28;;;;;;;;;;;11.70;42.10;;;11.89;44.94;99531.91;5051623;28;19932;-37
2023/12/01 01:26:56;;;;;;;;;;;11.70;42.20;;;11.87;45.16;99533.38;5051631;28;20373;-35
2023/12/01 01:29:26;;;;;;;;;;;11.70;42.10;;;11.84;45.01;99528.00;5052117;28;20020;-37
2023/12/01 01:31:53;;;;;;;;;;;11.70;42.20;;;11.86;45.29;99528.19;5051878;28;19932;-37
2023/12/01 01:34:21;;;;;;;;;;;11.70;42.20;;;11.85;45.68;99524.78;5051825;28;19983;-37
2023/12/01 01:36:51;;;;;;;;;;;11.70;42.20;;;11.85;45.45;99534.81;5051568;28;19929;-36
2023/12/01 01:39:19;;;;;;;;;;;11.70;42.20;;;11.84;45.43;99533.03;5051909;28;20343;-36
2023/12/01 01:41:47;;;;;;;;;;;11.70;42.20;;;11.85;45.35;99544.84;5051952;28;19931;-36
2023/12/01 01:44:15;;;;;;;;;;;11.70;42.30;;;11.84;45.84;99542.16;5052281;28;19925;-36
2023/12/01 01:46:44;;;;;;;;;;;11.70;42.30;;;11.83;45.05;99546.28;5051322;28;19925;-36
2023/12/01 01:49:12;;;;;;;;;;;11.60;42.30;;;11.78;45.42;99536.50;5052007;28;19960;-37
2023/12/01 01:51:40;;;;;;;;;;;11.60;42.30;;;11.82;44.97;99537.00;5051862;28;20407;-38
2023/12/01 01:54:08;;;;;;;;;;;11.60;42.30;;;11.81;45.35;99547.78;5043630;28;20375;-37
2023/12/01 01:56:36;;;;;;;;;;;11.60;42.30;;;11.79;44.96;99549.22;5051969;28;19928;-37
2023/12/01 01:59:04;;;;;;;;;;;11.60;42.30;;;11.80;45.48;99551.00;5053167;28;20015;-37
2023/12/01 02:01:32;;;;;;;;;;;11.60;42.30;;;11.79;45.55;99550.84;5055523;28;20284;-37
2023/12/01 02:04:03;;;;;;;;;;;11.60;42.20;;;11.77;45.89;99543.13;5055765;28;20019;-37
2023/12/01 02:06:32;;;;;;;;;;;11.60;42.30;;;11.78;45.83;99547.44;5055235;28;19925;-36
2023/12/01 02:09:01;;;;;;;;;;;11.60;42.30;;;11.77;45.49;99545.66;5054829;28;19924;-38
2023/12/01 02:11:28;;;;;;;;;;;11.60;42.30;;;11.76;45.16;99551.38;5090010;22;19928;-35
2023/12/01 02:13:59;;;;;;;;;;;11.60;42.30;;;11.75;45.92;99551.25;5075260;28;19924;-36
2023/12/01 02:16:28;;;;;;;;;;;11.60;42.40;;;11.76;45.26;99548.88;5075466;28;19970;-36
2023/12/01 02:18:56;;;;;;;;;;;11.60;42.40;;;11.76;45.27;99543.84;5075108;28;20406;-35
2023/12/01 02:21:25;;;;;;;;;;;11.60;42.40;;;11.76;45.41;99543.84;5061818;28;19979;-36
2023/12/01 02:23:55;;;;;;;;;;;11.60;42.30;;;11.73;45.34;99533.47;5054870;28;19933;-35
2023/12/01 02:26:24;;;;;;;;;;;11.60;42.30;;;11.80;45.21;99540.97;5055820;28;19971;-37
2023/12/01 02:28:52;;;;;;;;;;;11.60;42.40;;;11.80;45.73;99543.47;5054769;28;20364;-36
2023/12/01 02:31:20;;;;;;;;;;;11.60;42.40;;;11.79;45.23;99549.22;5056137;28;20315;-35
2023/12/01 02:33:48;;;;;;;;;;;11.60;42.30;;;11.79;45.58;99554.25;5054806;28;19975;-36
2023/12/01 02:36:17;;;;;;;;;;;11.60;42.40;;;11.77;45.42;99557.28;5055869;28;19994;-36
2023/12/01 02:38:45;;;;;;;;;;;11.60;42.30;;;11.78;45.59;99557.47;5054448;28;19929;-35
2023/12/01 02:41:15;;;;;;;;;;;11.60;42.30;;;11.79;45.50;99553.34;5054576;28;20023;-35
2023/12/01 02:43:43;;;;;;;;;;;11.60;42.30;;;11.80;45.64;99558.53;5054480;28;20058;-36
2023/12/01 02:46:12;;;;;;;;;;;11.60;42.20;;;11.82;45.04;99553.69;5054698;28;19925;-36
2023/12/01 02:48:40;;;;;;;;;;;11.60;42.20;;;11.84;45.53;99563.16;5054600;28;19932;-36
2023/12/01 02:51:08;;;;;;;;;;;11.70;42.20;;;11.84;45.31;99563.16;5054322;28;20019;-35
2023/12/01 02:53:36;;;;;;;;;;;11.60;42.20;;;11.84;45.58;99563.16;5059663;28;19935;-36
2023/12/01 02:56:05;;;;;;;;;;;11.60;42.10;;;11.83;45.23;99566.38;5060543;28;19932;-35
2023/12/01 02:58:34;;;;;;;;;;;11.70;42.20;;;11.88;45.17;99570.28;5061696;28;20291;-36
2023/12/01 03:01:03;;;;;;;;;;;11.70;42.20;;;11.87;45.13;99568.50;5059232;28;19970;-36
2023/12/01 03:03:31;;;;;;;;;;;11.70;42.10;;;11.89;45.70;99567.03;5053970;28;19932;-36
2023/12/01 03:05:59;;;;;;;;;;;11.70;42.10;;;11.84;45.09;99558.13;5054303;28;19932;-35
2023/12/01 03:08:27;;;;;;;;;;;11.70;42.10;;;11.85;45.63;99559.91;5054027;28;20015;-35
2023/12/01 03:10:55;;;;;;;;;;;11.70;42.10;;;11.87;44.72;99555.97;5059258;28;19928;-35
2023/12/01 03:13:23;;;;;;;;;;;11.70;42.10;;;11.88;45.46;99560.25;5053917;28;19925;-35
2023/12/01 03:15:52;;;;;;;;;;;11.70;42.10;;;11.88;44.73;99554.34;5053908;28;19932;-35
2023/12/01 03:18:20;;;;;;;;;;;11.70;42.10;;;11.89;45.58;99557.00;5053810;28;19925;-35
2023/12/01 03:20:51;;;;;;;;;;;11.70;42.10;;;11.89;45.02;99557.00;5054744;28;19944;-36
2023/12/01 03:23:18;;;;;;;;;;;11.70;42.10;;;11.88;45.50;99560.25;5054412;28;19924;-36
2023/12/01 03:25:46;;;;;;;;;;;11.70;42.10;;;11.87;45.69;99553.44;5053660;28;19933;-36
2023/12/01 03:28:14;;;;;;;;;;;11.70;42.10;;;11.86;44.99;99548.25;5045805;28;20012;-36
2023/12/01 03:30:43;;;;;;;;;;;11.70;42.10;;;11.91;45.22;99560.56;5053467;28;20043;-35
2023/12/01 03:33:12;;;;;;;;;;;11.70;42.10;;;11.89;44.77;99557.00;5053498;28;19925;-35
2023/12/01 03:35:40;;;;;;;;;;;11.70;42.10;;;11.91;45.52;99553.03;5053944;28;19978;-36
2023/12/01 03:38:08;;;;;;;;;;;11.70;42.10;;;11.90;44.94;99557.88;5053486;28;19933;-36
2023/12/01 03:40:39;;;;;;;;;;;11.70;42.10;;;11.89;45.08;99553.59;5053798;28;19929;-36
2023/12/01 03:43:07;;;;;;;;;;;11.70;42.20;;;11.88;45.66;99555.25;5053586;28;20015;-35
2023/12/01 03:45:35;;;;;;;;;;;11.70;42.10;;;11.91;45.17;99559.66;5054081;28;20031;-35
2023/12/01 03:48:03;;;;;;;;;;;11.70;42.10;;;11.88;45.48;99560.25;5053305;28;19931;-36
2023/12/01 03:50:32;;;;;;;;;;;11.70;42.10;;;11.89;45.31;99558.59;5053316;28;19964;-36
2023/12/01 03:53:00;;;;;;;;;;;11.70;42.10;;;11.87;45.45;99563.50;5053160;28;19979;-35
2023/12/01 03:55:28;;;;;;;;;;;11.70;42.10;;;11.88;45.10;99562.75;5053419;28;19924;-36
2023/12/01 03:57:56;;;;;;;;;;;11.70;42.10;;;11.85;44.71;99559.91;5053433;28;19986;-36
2023/12/01 04:00:32;;;;;;;;;;;11.70;42.20;;;11.89;45.47;99566.13;5052780;28;20423;-36
2023/12/01 04:03:00;;;;;;;;;;;11.70;42.20;;;11.86;45.33;99564.22;5052595;28;20379;-35
2023/12/01 04:05:28;;;;;;;;;;;11.70;42.20;;;11.85;45.31;99559.91;5053156;28;20047;-36
2023/12/01 04:07:57;;;;;;;;;;;11.70;42.20;;;11.84;45.43;99563.16;5052893;28;19964;-35
2023/12/01 04:10:25;;;;;;;;;;;11.70;42.20;;;11.84;44.96;99573.19;5056102;28;19924;-36
2023/12/01 04:12:55;;;;;;;;;;;11.70;42.20;;;11.85;45.24;99564.94;5055437;28;20010;-36
2023/12/01 04:15:24;;;;;;;;;;;11.70;42.20;;;11.85;45.17;99574.97;5052528;28;20392;-36
2023/12/01 04:17:53;;;;;;;;;;;11.70;42.20;;;11.83;45.50;99576.41;5052716;28;19925;-36
2023/12/01 04:20:22;;;;;;;;;;;11.70;42.20;;;11.83;45.23;99586.44;5052717;28;20003;-36
2023/12/01 04:22:52;;;;;;;;;;;11.70;42.20;;;11.82;45.53;99579.69;5052752;28;20022;-36
2023/12/01 04:25:21;;;;;;;;;;;11.70;42.30;;;11.83;45.19;99588.97;5052493;28;19948;-36
2023/12/01 04:27:50;;;;;;;;;;;11.70;42.20;;;11.83;45.17;99590.56;5052548;28;20434;-36
2023/12/01 04:30:20;;;;;;;;;;;11.60;42.20;;;11.82;45.16;99589.72;5044639;28;20035;-36
2023/12/01 04:32:52;;;;;;;;;;;11.70;42.20;;;11.89;45.65;99601.28;5052556;28;19929;-35
2023/12/01 04:35:21;;;;;;;;;;;11.70;42.20;;;11.84;45.74;99603.28;5052535;28;19924;-35
2023/12/01 04:37:48;;;;;;;;;;;11.70;42.20;;;11.83;45.20;99591.47;5052191;28;19925;-35
2023/12/01 04:40:17;;;;;;;;;;;11.70;42.20;;;11.83;45.67;99600.63;5044037;28;19928;-35
2023/12/01 04:42:47;;;;;;;;;;;11.70;42.20;;;11.84;45.50;99597.38;5052355;28;19925;-35
2023/12/01 04:45:16;;;;;;;;;;;11.70;42.20;;;11.87;44.58;99598.63;5052051;28;19925;-35
2023/12/01 04:47:44;;;;;;;;;;;11.70;42.20;;;11.84;45.53;99603.28;5052446;28;19925;-34
2023/12/01 04:50:13;;;;;;;;;;;11.70;42.20;;;11.88;45.01;99600.41;5051641;28;20400;-34
2023/12/01 04:52:42;;;;;;;;;;;11.70;42.20;;;11.85;45.14;99605.09;5052098;28;19925;-35
2023/12/01 04:55:10;;;;;;;;;;;11.70;42.20;;;11.85;45.28;99605.09;5053612;28;19935;-35
2023/12/01 04:57:38;;;;;;;;;;;11.70;42.20;;;11.87;45.39;99610.28;5054166;28;20304;-34
2023/12/01 05:00:19;;;;;;;;;;;11.70;42.10;;;11.87;45.42;99603.66;5051864;28;20350;-34
2023/12/01 05:02:49;;;;;;;;;;;11.70;42.10;;;11.85;45.02;99610.09;5052992;28;19983;-34
2023/12/01 05:05:17;;;;;;;;;;;11.70;42.10;;;11.89;44.80;99606.28;5052945;28;20303;-34
2023/12/01 05:07:45;;;;;;;;;;;11.70;42.10;;;11.86;45.12;99606.88;5052189;28;19925;-35
2023/12/01 05:10:15;;;;;;;;;;;11.70;42.10;;;11.86;45.02;99596.84;5053617;28;20006;-35
2023/12/01 05:12:44;;;;;;;;;;;11.70;42.10;;;11.86;44.62;99606.88;5056889;28;19987;-35
2023/12/01 05:15:16;;;;;;;;;;;11.70;42.10;;;11.84;44.95;99603.28;5051550;28;19928;-35
2023/12/01 05:17:45;;;;;;;;;;;11.70;42.10;;;11.84;45.60;99608.31;5051769;28;19925;-34
2023/12/01 05:20:16;;;;;;;;;;;11.70;42.10;;;11.82;44.67;99609.78;5051543;28;19928;-35
2023/12/01 05:22:45;;;;;;;;;;;11.70;42.20;;;11.83;45.52;99614.06;5051542;28;19931;-34
2023/12/01 05:25:14;;;;;;;;;;;11.70;42.20;;;11.82;44.83;99614.81;5051756;28;20018;-34
2023/12/01 05:27:47;;;;;;;;;;;11.60;42.10;;;11.84;44.65;99623.38;5051756;28;19924;-34
2023/12/01 05:30:17;;;;;;;;;;;11.60;42.20;;;11.85;45.39;99630.19;5051307;28;20043;-35
2023/12/01 05:32:45;;;;;;;;;;;11.60;42.10;;;11.83;45.23;99631.63;5051476;28;19925;-35
2023/12/01 05:35:14;;;;;;;;;;;11.60;42.20;;;11.83;45.07;99631.63;5054848;28;19925;-35
2023/12/01 05:37:46;;;;;;;;;;;11.60;42.20;;;11.83;45.30;99634.13;5057387;28;20003;-35
2023/12/01 05:40:15;;;;;;;;;;;11.60;42.20;;;11.81;45.16;99638.13;5056729;28;20035;-34
2023/12/01 05:42:43;;;;;;;;;;;11.60;42.20;;;11.81;45.31;99638.13;5059680;28;19925;-35
2023/12/01 05:45:12;;;;;;;;;;;11.60;42.20;;;11.81;44.71;99643.13;5060844;28;19929;-35
2023/12/01 05:47:43;;;;;;;;;;;11.60;42.10;;;11.82;45.16;99644.94;5064041;28;20023;-35
2023/12/01 05:50:13;;;;;;;;;;;11.60;42.10;;;11.80;45.75;99651.38;5060755;28;20015;-35
2023/12/01 05:52:42;;;;;;;;;;;11.60;42.10;;;11.81;45.11;99648.16;5055444;28;19947;-34
2023/12/01 05:55:14;;;;;;;;;;;11.60;42.10;;;11.80;45.69;99656.41;5054891;28;19925;-35
2023/12/01 05:57:44;;;;;;;;;;;11.60;42.10;;;11.81;45.64;99653.19;5055558;28;19925;-35
2023/12/01 06:00:15;;;;;;;;;;;11.60;42.10;;;11.83;45.14;99650.81;5055153;28;19925;-35
2023/12/01 06:02:44;;;;;;;;;;;11.60;42.10;;;11.83;44.90;99651.69;5055121;28;19925;-35
2023/12/01 06:05:12;;;;;;;;;;;11.70;42.10;;;11.86;45.32;99657.06;5054981;28;19925;-35
2023/12/01 06:07:43;;;;;;;;;;;11.70;42.00;;;11.87;44.93;99657.97;5055054;28;20023;-34
2023/12/01 06:10:11;;;;;;;;;;;11.70;42.00;;;11.89;45.31;99664.91;5056719;28;19925;-35
2023/12/01 06:12:39;;;;;;;;;;;11.70;42.00;;;11.87;45.13;99652.94;5061551;28;19929;-35
2023/12/01 06:15:10;;;;;;;;;;;11.70;41.90;;;11.87;45.26;99666.38;5055185;28;19963;-34
2023/12/01 06:17:37;;;;;;;;;;;11.70;41.90;;;11.89;45.00;99657.38;5054802;28;19925;-34
2023/12/01 06:20:16;;;;;;;;;;;11.70;41.90;;;11.91;44.55;99660.97;5054509;28;19929;-34
2023/12/01 06:22:46;;;;;;;;;;;11.70;41.90;;;11.90;45.38;99659.19;5054542;28;20403;-35
2023/12/01 06:25:14;;;;;;;;;;;11.70;42.50;;;11.93;44.93;99669.56;5054940;28;19925;-35
2023/12/01 06:27:42;;;;;;;;;;;11.70;41.90;;;11.92;44.91;99672.78;5054706;28;20046;-35
2023/12/01 06:30:11;;;;;;;;;;;11.80;42.00;;;11.91;44.99;99676.03;5054525;28;20304;-35
2023/12/01 06:32:40;;;;;;;;;;;11.80;41.90;;;11.86;45.36;99674.66;5055167;28;20353;-35
2023/12/01 06:35:11;;;;;;;;;;;11.80;41.90;;;11.93;44.32;99678.72;5054718;28;19971;-35
2023/12/01 06:37:39;;;;;;;;;;;11.80;42.00;;;11.93;44.55;99684.63;5054971;28;20012;-35
2023/12/01 06:40:11;;;;;;;;;;;11.80;41.90;;;11.94;45.00;99683.91;5054313;28;19928;-35
2023/12/01 06:42:41;;;;;;;;;;;11.80;41.90;;;11.94;45.04;99691.44;5066240;28;19933;-35
2023/12/01 06:45:11;;;;;;;;;;;11.80;41.90;;;11.95;44.83;99693.19;5062007;28;19962;-35
2023/12/01 06:47:40;;;;;;;;;;;11.80;41.90;;;11.94;45.00;99691.44;5054386;28;19929;-35
2023/12/01 06:50:11;;;;;;;;;;;11.80;41.90;;;11.96;44.95;99700.00;5054084;28;19925;-35
2023/12/01 06:52:39;;;;;;;;;;;11.80;41.90;;;11.95;44.42;99703.22;5054053;28;19932;-35
2023/12/01 06:55:08;;;;;;;;;;;11.80;41.90;;;11.96;45.40;99702.50;5053593;28;20464;-35
2023/12/01 06:57:37;;;;;;;;;;;11.80;41.90;;;11.98;44.78;99712.72;5054791;28;19931;-35
2023/12/01 07:00:07;;;;;;;;;;;11.80;41.90;;;11.95;45.45;99718.28;5055131;28;20319;-35
2023/12/01 07:02:37;;;;;;;;;;;11.80;41.90;;;11.40;44.50;99620.13;5053988;28;19925;-35
2023/12/01 07:05:06;;;;;;;;;;;11.80;41.90;;;11.94;44.59;99726.59;5053664;28;19931;-35
2023/12/01 07:07:37;;;;;;;;;;;11.80;41.90;;;11.94;45.31;99726.59;5053727;28;19925;-35
2023/12/01 07:10:07;;;;;;;;;;;11.80;41.90;;;11.93;44.62;99733.94;5053427;28;19932;-35
2023/12/01 07:12:35;;;;;;;;;;;11.80;41.90;;;11.95;44.68;99733.34;5053380;28;20335;-35
2023/12/01 07:15:03;;;;;;;;;;;11.80;41.90;;;11.94;45.16;99734.09;5053592;28;19925;-35
2023/12/01 07:17:31;;;;;;;;;;;11.70;41.80;;;11.94;45.11;99726.59;5053416;28;20024;-35
2023/12/01 07:19:59;;;;;;;;;;;11.80;41.90;;;11.94;45.15;99730.69;5053581;28;20019;-35
2023/12/01 07:22:27;;;;;;;;;;;11.80;41.90;;;11.94;44.23;99736.63;5045438;28;19931;-35
2023/12/01 07:24:56;;;;;;;;;;;11.80;41.90;;;11.93;45.40;99728.91;5053107;28;20202;-35
2023/12/01 07:27:25;;;;;;;;;;;11.70;41.80;;;11.93;45.16;99737.34;5053127;28;19929;-35
2023/12/01 07:29:53;;;;;;;;;;;11.70;41.80;;;11.93;45.45;99744.88;5053501;28;19925;-35
2023/12/01 07:32:21;;;;;;;;;;;11.70;41.80;;;11.92;45.36;99748.09;5053266;28;19933;-35
2023/12/01 07:34:50;;;;;;;;;;;11.70;41.80;;;11.92;44.94;99747.22;5053156;28;20131;-35
2023/12/01 07:37:19;;;;;;;;;;;11.80;41.80;;;11.91;45.08;99746.31;5053094;28;20348;-35
2023/12/01 07:39:47;;;;;;;;;;;11.80;41.90;;;11.95;44.75;99762.63;5053153;28;20399;-35
2023/12/01 07:42:16;;;;;;;;;;;11.70;41.80;;;11.93;44.67;99762.44;5053224;28;20002;-36
2023/12/01 07:44:44;;;;;;;;;;;11.80;41.80;;;11.92;45.15;99762.25;5052928;28;19931;-34
2023/12/01 07:47:12;;;;;;;;;;;11.80;41.80;;;11.92;45.17;99763.16;5053087;28;19925;-35
2023/12/01 07:49:41;;;;;;;;;;;11.80;41.80;;;11.93;45.05;99759.94;5052924;28;20340;-35
2023/12/01 07:52:09;;;;;;;;;;;11.70;41.80;;;11.91;44.76;99761.38;5052449;28;19928;-36
2023/12/01 07:54:37;;;;;;;;;;;11.70;41.80;;;11.92;44.66;99767.28;5052661;28;19925;-35
2023/12/01 07:57:05;;;;;;;;;;;11.70;41.80;;;11.91;45.18;99763.88;5052509;28;20376;-35
2023/12/01 07:59:34;;;;;;;;;;;11.70;41.80;;;11.91;44.98;99766.38;5052897;28;19924;-35
2023/12/01 08:02:02;;;;;;;;;;;11.70;41.80;;;11.93;44.91;99764.94;5052726;28;20011;-35
2023/12/01 08:04:31;;;;;;;;;;;11.70;41.80;;;11.91;45.39;99756.34;5044660;28;20024;-35
2023/12/01 08:06:59;;;;;;;;;;;11.70;41.80;;;11.90;45.33;99754.56;5052539;28;20007;-35
2023/12/01 08:09:31;;;;;;;;;;;11.70;41.80;;;11.93;44.72;99759.94;5052514;28;19925;-35
2023/12/01 08:14:27;;;;;;;;;;;11.70;41.80;;;11.92;44.36;99763.16;5063176;28;19924;-31
2023/12/01 08:16:56;;;;;;;;;;;11.80;41.90;;;11.92;45.34;99760.66;5066918;28;19925;-30
2023/12/01 08:19:24;;;;;;;;;;;11.80;41.80;;;11.93;45.00;99764.94;5061407;28;19971;-29
2023/12/01 08:21:52;;;;;;;;;;;11.70;41.80;;;11.95;44.69;99762.63;5067788;28;19928;-30
2023/12/01 08:24:20;;;;;;;;;;;11.70;41.80;;;11.95;45.26;99763.47;5062192;28;20284;-30
2023/12/01 08:27:00;;;;;;;;;;;11.70;41.80;;;11.93;44.52;99769.97;5060658;28;20380;-29
2023/12/01 08:29:27;;;;;;;;;;;11.80;41.80;;;11.93;45.34;99774.09;5064317;28;20011;-31
2023/12/01 08:32:00;;;;;;;;;;;11.80;41.80;;;11.91;44.94;99766.38;5064478;28;19928;-30
2023/12/01 08:34:28;;;;;;;;;;;11.80;41.90;;;11.91;44.92;99776.44;5052608;28;19932;-31
2023/12/01 08:36:56;;;;;;;;;;;11.80;41.80;;;11.92;45.23;99773.19;5060920;28;19925;-32
2023/12/01 08:39:23;;;;;;;;;;;11.80;41.90;;;11.93;44.75;99784.13;5051880;28;19971;-31
2023/12/01 08:41:53;;;;;;;;;;;11.70;41.70;;;11.93;45.04;99784.13;5051778;28;20395;-31
2023/12/01 08:44:21;;;;;;;;;;;11.80;41.80;;;11.90;45.25;99789.69;5061967;28;20396;-31
2023/12/01 08:46:49;;;;;;;;;;;11.70;41.70;;;11.92;44.25;99788.25;5063674;28;19924;-31
2023/12/01 08:49:19;;;;;;;;;;;11.80;41.90;;;11.90;44.86;99784.69;5063667;28;19929;-31
2023/12/01 08:51:47;;;;;;;;;;;11.70;41.80;;;11.90;44.71;99794.72;5066106;28;19924;-34
2023/12/01 08:54:15;;;;;;;;;;;11.70;41.80;;;11.91;45.34;99805.66;5052638;28;19924;-35
2023/12/01 08:56:49;;;;;;;;;;;11.70;41.80;;;11.92;45.21;99800.81;5065398;28;20380;-33
2023/12/01 08:59:17;;;;;;;;;;;11.70;41.80;;;11.90;44.38;99809.78;5059674;28;20380;-36
2023/12/01 09:01:45;;;;;;;;;;;11.70;41.80;;;11.87;45.43;99799.41;5057276;28;19924;-31
2023/12/01 09:04:13;;;;;;;;;;;11.70;41.80;;;11.90;45.17;99809.78;5053558;28;20359;-30
2023/12/01 09:06:43;;;;;;;;;;;11.70;41.70;;;11.90;44.21;99809.78;5052092;28;20355;-30
2023/12/01 09:09:12;;;;;;;;;;;11.70;41.70;;;11.93;45.07;99815.16;5051292;28;19925;-31
2023/12/01 09:11:40;;;;;;;;;;;11.70;41.70;;;11.91;44.46;99810.69;5058468;28;19932;-30
2023/12/01 09:14:08;;;;;;;;;;;11.80;41.80;;;11.91;45.08;99811.56;5051189;28;19932;-29
2023/12/01 09:16:36;;;;;;;;;;;11.80;41.80;;;11.91;44.59;99809.06;5051740;28;19931;-31
2023/12/01 09:19:04;;;;;;;;;;;11.80;41.80;;;11.89;44.72;99810.50;5059716;28;20015;-32
2023/12/01 09:21:35;;;;;;;;;;;11.80;41.80;;;11.90;44.63;99817.31;5059120;28;19933;-32
2023/12/01 09:24:04;;;;;;;;;;;11.70;41.70;;;11.88;45.01;99821.28;5059001;28;20303;-30
2023/12/01 09:26:32;;;;;;;;;;;11.70;41.70;;;11.91;44.84;99818.22;5054694;28;19932;-32
2023/12/01 09:29:00;;;;;;;;;;;11.70;41.70;;;11.92;45.18;99818.38;5071758;28;19966;-32
2023/12/01 09:31:28;;;;;;;;;;;11.70;41.70;;;11.80;44.93;99794.44;5071227;28;20376;-32
2023/12/01 09:33:56;;;;;;;;;;;11.70;41.70;;;11.89;44.59;99818.03;5062748;28;19931;-31
2023/12/01 09:36:25;;;;;;;;;;;11.70;41.70;;;11.90;44.57;99826.47;5068698;28;19931;-33
2023/12/01 09:38:54;;;;;;;;;;;11.70;41.90;;;11.92;44.53;99828.44;5058082;28;20003;-33
2023/12/01 09:41:24;;;;;;;;;;;11.70;41.90;;;11.92;45.00;99828.44;5068882;28;20312;-31
2023/12/01 09:43:51;;;;;;;;;;;11.70;41.90;;;11.89;44.41;99832.19;5065329;28;19931;-37
2023/12/01 09:46:34;;;;;;;;;;;11.70;41.80;;;11.89;45.17;99823.06;5070930;28;19931;-31
2023/12/01 09:49:04;;;;;;;;;;;11.70;41.80;;;11.89;45.36;99833.09;5071491;28;20007;-36
2023/12/01 09:51:34;;;;;;;;;;;11.70;41.70;;;11.88;44.76;99831.31;5069845;28;19924;-35
2023/12/01 09:54:02;;;;;;;;;;;11.70;41.80;;;11.88;44.92;99831.31;5055210;28;19925;-36
2023/12/01 09:56:32;;;;;;;;;;;11.70;41.80;;;11.88;45.26;99836.34;5053982;28;20411;-31
2023/12/01 09:59:00;;;;;;;;;;;11.70;41.80;;;11.87;45.23;99834.56;5070817;28;19924;-35
2023/12/01 10:01:28;;;;;;;;;;;11.70;41.80;;;11.89;44.55;99835.59;5071090;28;19925;-35
2023/12/01 10:03:56;;;;;;;;;;;11.70;41.80;;;11.90;44.31;99837.41;5070914;28;19970;-34
2023/12/01 10:06:24;;;;;;;;;;;11.70;41.80;;;11.86;45.68;99841.91;5070858;28;20164;-33
2023/12/01 10:08:52;;;;;;;;;;;11.70;41.80;;;11.82;45.34;99830.66;5056862;28;19925;-32
2023/12/01 10:11:21;;;;;;;;;;;11.70;41.80;;;11.88;44.87;99841.38;5058317;28;20526;-33
2023/12/01 10:13:51;;;;;;;;;;;11.70;41.90;;;11.86;45.04;99842.81;5059301;28;19925;-30
2023/12/01 10:16:19;;;;;;;;;;;11.70;41.80;;;11.84;45.25;99834.19;5052304;28;19979;-32
2023/12/01 10:18:57;;;;;;;;;;;11.70;41.90;;;11.83;45.22;99839.94;5062904;28;19931;-32
2023/12/01 10:21:41;;;;;;;;;;;11.70;41.90;;;11.85;45.52;99841.00;5063918;28;20042;-32
2023/12/01 10:24:16;;;;;;;;;;;11.70;41.80;;;11.83;45.43;99837.44;5062184;28;19925;-31
2023/12/01 10:26:44;;;;;;;;;;;11.70;41.80;;;11.82;45.25;99828.13;5059129;28;19935;-30
2023/12/01 10:29:28;;;;;;;;;;;11.70;41.90;;;11.82;45.13;99827.25;5074115;28;19924;-36
2023/12/01 10:31:57;;;;;;;;;;;11.70;41.80;;;11.84;45.41;99824.16;5062432;28;20296;-34
2023/12/01 10:34:26;;;;;;;;;;;11.70;41.80;;;11.85;44.40;99825.94;5064162;28;19929;-30
2023/12/01 10:36:54;;;;;;;;;;;11.70;41.80;;;11.86;45.30;99827.75;5060334;28;20023;-30
2023/12/01 10:39:25;;;;;;;;;;;11.70;41.80;;;11.86;44.73;99820.22;5062511;28;19924;-31
2023/12/01 10:41:54;;;;;;;;;;;11.70;41.70;;;11.89;44.85;99823.06;5054198;28;19947;-33
2023/12/01 10:44:28;;;;;;;;;;;11.70;41.80;;;11.88;44.30;99831.31;5070314;28;20285;-31
2023/12/01 10:46:56;;;;;;;;;;;11.70;41.70;;;11.91;44.33;99824.13;5062212;28;19979;-31
2023/12/01 10:49:24;;;;;;;;;;;11.80;41.80;;;11.92;44.45;99823.41;5054077;28;19925;-30
2023/12/01 10:51:53;;;;;;;;;;;11.80;41.70;;;11.92;44.59;99814.97;5059641;28;20349;-32
2023/12/01 10:54:25;;;;;;;;;;;11.80;41.70;;;11.88;45.14;99801.22;5057198;28;19925;-34
2023/12/01 10:56:56;;;;;;;;;;;11.80;41.60;;;11.96;44.42;99820.50;5060152;28;19931;-33
2023/12/01 10:59:25;;;;;;;;;;;11.80;41.60;;;11.96;44.38;99812.97;5062061;28;19931;-32
2023/12/01 11:01:55;;;;;;;;;;;11.80;41.50;;;11.97;44.41;99821.41;5062252;28;19928;-33
2023/12/01 11:04:26;;;;;;;;;;;11.80;41.50;;;12.01;44.38;99814.38;5069835;28;19932;-31
2023/12/01 11:07:01;;;;;;;;;;;11.90;41.60;;;11.82;44.79;99789.59;5062053;28;19932;-31
2023/12/01 11:09:33;;;;;;;;;;;11.80;41.50;;;12.01;44.65;99814.38;5070022;28;19924;-35
2023/12/01 11:12:05;;;;;;;;;;;11.90;41.50;;;11.97;44.71;99807.22;5059965;28;20023;-35
2023/12/01 11:14:33;;;;;;;;;;;11.90;41.50;;;12.03;44.95;99817.94;5056080;28;20388;-35
2023/12/01 11:17:04;;;;;;;;;;;11.90;41.50;;;12.00;44.50;99812.59;5065353;28;19931;-37
2023/12/01 11:19:35;;;;;;;;;;;11.90;41.50;;;12.01;44.34;99814.38;5073201;28;19931;-33
2023/12/01 11:22:22;;;;;;;;;;;11.90;41.50;;;12.03;44.50;99807.00;5073200;28;19930;-32
2023/12/01 11:24:50;;;;;;;;;;;11.90;41.50;;;12.02;44.13;99806.13;5060074;28;19925;-33
2023/12/01 11:27:19;;;;;;;;;;;11.90;41.50;;;12.03;44.58;99807.00;5062032;28;19925;-34